createdAt,value
2019-05-22T00:00:00.000Z,11.15
2019-05-22T00:09:37.000Z,11.13
2019-05-22T00:14:19.000Z,11.11
2019-05-22T00:19:07.000Z,11.08
2019-05-22T00:23:55.000Z,11.07
2019-05-22T00:28:42.000Z,11.05
2019-05-22T00:33:29.000Z,11.04
2019-05-22T00:38:17.000Z,11.01
2019-05-22T00:43:04.000Z,11.00
2019-05-22T00:47:52.000Z,10.98
2019-05-22T00:52:41.000Z,10.96
2019-05-22T00:57:27.000Z,10.97
2019-05-22T01:02:14.000Z,10.95
2019-05-22T01:07:02.000Z,10.94
2019-05-22T01:11:50.000Z,10.91
2019-05-22T01:16:36.000Z,10.91
2019-05-22T01:21:24.000Z,10.89
2019-05-22T01:26:11.000Z,10.88
2019-05-22T01:30:59.000Z,10.87
2019-05-22T01:40:37.000Z,10.84
2019-05-22T01:45:21.000Z,10.83
2019-05-22T01:50:10.000Z,10.81
2019-05-22T01:54:56.000Z,10.81
2019-05-22T01:59:43.000Z,10.80
2019-05-22T02:04:35.000Z,10.76
2019-05-22T02:09:17.000Z,10.72
2019-05-22T02:14:04.000Z,10.70
2019-05-22T02:18:52.000Z,10.69
2019-05-22T02:23:39.000Z,10.69
2019-05-22T02:28:27.000Z,10.66
2019-05-22T02:33:15.000Z,10.65
2019-05-22T02:38:02.000Z,10.63
2019-05-22T02:42:49.000Z,10.64
2019-05-22T02:47:36.000Z,10.62
2019-05-22T02:52:24.000Z,10.62
2019-05-22T02:57:11.000Z,10.59
2019-05-22T03:01:59.000Z,10.56
2019-05-22T03:06:46.000Z,10.56
2019-05-22T03:11:35.000Z,10.58
2019-05-22T03:16:23.000Z,10.58
2019-05-22T03:21:11.000Z,10.57
2019-05-22T03:25:59.000Z,10.56
2019-05-22T03:30:47.000Z,10.55
2019-05-22T03:35:36.000Z,10.55
2019-05-22T03:40:24.000Z,10.55
2019-05-22T03:45:12.000Z,10.56
2019-05-22T03:50:00.000Z,10.58
2019-05-22T03:54:48.000Z,10.59
2019-05-22T03:59:36.000Z,10.59
2019-05-22T04:04:25.000Z,10.60
2019-05-22T04:09:13.000Z,10.60
2019-05-22T04:14:01.000Z,10.61
2019-05-22T04:18:49.000Z,10.62
2019-05-22T04:23:37.000Z,10.63
2019-05-22T04:28:26.000Z,10.63
2019-05-22T04:33:14.000Z,10.65
2019-05-22T04:38:02.000Z,10.67
2019-05-22T04:42:51.000Z,10.68
2019-05-22T04:47:39.000Z,10.71
2019-05-22T04:52:27.000Z,10.75
2019-05-22T04:57:15.000Z,10.78
2019-05-22T05:02:04.000Z,10.77
2019-05-22T05:06:52.000Z,10.77
2019-05-22T05:11:40.000Z,10.77
2019-05-22T05:16:28.000Z,10.77
2019-05-22T05:21:17.000Z,10.78
2019-05-22T05:26:05.000Z,10.76
2019-05-22T05:30:53.000Z,10.74
2019-05-22T05:35:41.000Z,10.71
2019-05-22T05:40:30.000Z,10.70
2019-05-22T05:45:19.000Z,10.71
2019-05-22T05:50:06.000Z,10.72
2019-05-22T05:54:54.000Z,10.75
2019-05-22T05:59:42.000Z,10.76
2019-05-22T06:04:31.000Z,10.80
2019-05-22T06:09:19.000Z,10.85
2019-05-22T06:14:07.000Z,10.93
2019-05-22T06:18:56.000Z,11.02
2019-05-22T06:23:44.000Z,11.07
2019-05-22T06:28:32.000Z,11.13
2019-05-22T06:33:21.000Z,11.32
2019-05-22T06:38:09.000Z,11.37
2019-05-22T06:42:57.000Z,11.47
2019-05-22T06:47:46.000Z,11.56
2019-05-22T06:52:34.000Z,11.63
2019-05-22T06:57:22.000Z,11.73
2019-05-22T07:02:11.000Z,11.93
2019-05-22T07:06:59.000Z,12.05
2019-05-22T07:11:48.000Z,12.15
2019-05-22T07:16:36.000Z,12.17
2019-05-22T07:21:24.000Z,12.09
2019-05-22T07:26:12.000Z,12.10
2019-05-22T07:31:01.000Z,12.15
2019-05-22T07:35:49.000Z,12.28
2019-05-22T07:40:37.000Z,12.36
2019-05-22T07:45:25.000Z,12.29
2019-05-22T07:50:13.000Z,12.30
2019-05-22T07:55:02.000Z,12.32
2019-05-22T07:59:50.000Z,12.42
2019-05-22T08:04:38.000Z,12.56
2019-05-22T08:09:26.000Z,12.53
2019-05-22T08:14:15.000Z,12.51
2019-05-22T08:19:03.000Z,12.53
2019-05-22T08:23:51.000Z,12.58
2019-05-22T08:28:39.000Z,12.66
2019-05-22T08:33:28.000Z,12.73
2019-05-22T08:38:17.000Z,12.79
2019-05-22T08:43:03.000Z,12.71
2019-05-22T08:47:51.000Z,12.58
2019-05-22T08:52:42.000Z,12.61
2019-05-22T08:57:27.000Z,12.68
2019-05-22T09:02:16.000Z,12.86
2019-05-22T09:07:04.000Z,13.05
2019-05-22T09:11:52.000Z,13.24
2019-05-22T09:16:41.000Z,13.35
2019-05-22T09:21:29.000Z,13.49
2019-05-22T09:26:17.000Z,13.39
2019-05-22T09:31:05.000Z,13.17
2019-05-22T09:35:53.000Z,12.99
2019-05-22T11:21:09.000Z,14.61
2019-05-22T11:25:57.000Z,14.56
2019-05-22T11:30:46.000Z,14.48
2019-05-22T11:35:34.000Z,14.49
2019-05-22T11:40:22.000Z,14.64
2019-05-22T11:45:10.000Z,14.90
2019-05-22T11:49:59.000Z,15.23
2019-05-22T11:54:48.000Z,15.90
2019-05-22T11:59:37.000Z,16.32
2019-05-22T12:04:25.000Z,17.11
2019-05-22T12:09:13.000Z,17.43
2019-05-22T12:14:01.000Z,16.87
2019-05-22T12:18:49.000Z,16.38
2019-05-22T12:23:37.000Z,16.20
2019-05-22T12:28:24.000Z,15.63
2019-05-22T12:33:12.000Z,15.24
2019-05-22T12:38:01.000Z,15.21
2019-05-22T12:42:49.000Z,15.33
2019-05-22T12:47:37.000Z,15.34
2019-05-22T13:30:54.000Z,14.95
2019-05-22T13:35:41.000Z,14.87
2019-05-22T13:40:28.000Z,14.81
2019-05-22T13:45:16.000Z,14.67
2019-05-22T13:50:03.000Z,14.74
2019-05-22T13:54:51.000Z,14.87
2019-05-22T13:59:39.000Z,14.96
2019-05-22T14:04:27.000Z,14.94
2019-05-22T14:09:15.000Z,14.94
2019-05-22T14:14:04.000Z,15.04
2019-05-22T14:18:52.000Z,15.08
2019-05-22T14:23:41.000Z,15.08
2019-05-22T14:28:29.000Z,14.93
2019-05-22T14:38:04.000Z,14.67
2019-05-22T14:42:53.000Z,14.56
2019-05-22T14:47:41.000Z,14.37
2019-05-22T14:52:28.000Z,14.20
2019-05-22T14:57:16.000Z,14.07
2019-05-22T15:02:05.000Z,13.94
2019-05-22T15:06:53.000Z,13.87
2019-05-22T15:11:41.000Z,13.92
2019-05-22T15:16:29.000Z,14.04
2019-05-22T15:21:19.000Z,14.09
2019-05-22T15:26:05.000Z,14.04
2019-05-22T15:40:29.000Z,13.64
2019-05-22T15:45:16.000Z,13.42
2019-05-22T15:50:02.000Z,13.28
2019-05-22T15:59:39.000Z,13.10
2019-05-22T16:04:24.000Z,12.97
2019-05-22T16:09:13.000Z,12.86
2019-05-22T16:14:00.000Z,12.75
2019-05-22T16:18:48.000Z,12.68
2019-05-22T16:23:37.000Z,12.69
2019-05-22T16:28:25.000Z,12.65
2019-05-22T16:33:13.000Z,12.62
2019-05-22T16:38:01.000Z,12.56
2019-05-22T16:42:49.000Z,12.50
2019-05-22T16:47:37.000Z,12.44
2019-05-22T16:52:25.000Z,12.40
2019-05-22T16:57:13.000Z,12.41
2019-05-22T16:57:13.000Z,12.41
2019-05-22T17:02:01.000Z,12.43
2019-05-22T17:06:50.000Z,12.42
2019-05-22T17:11:38.000Z,12.40
2019-05-22T17:16:28.000Z,12.45
2019-05-22T17:21:13.000Z,12.46
2019-05-22T17:26:02.000Z,12.47
2019-05-22T17:30:50.000Z,12.46
2019-05-22T17:35:39.000Z,12.42
2019-05-22T17:40:25.000Z,12.38
2019-05-22T17:45:13.000Z,12.35
2019-05-22T17:50:02.000Z,12.31
2019-05-22T17:54:50.000Z,12.28
2019-05-22T17:59:38.000Z,12.24
2019-05-22T18:04:26.000Z,12.19
2019-05-22T18:09:14.000Z,12.15
2019-05-22T18:14:02.000Z,12.08
2019-05-22T18:18:50.000Z,12.00
2019-05-22T18:23:38.000Z,11.90
2019-05-22T18:28:26.000Z,11.83
2019-05-22T18:33:14.000Z,11.80
2019-05-22T18:38:02.000Z,11.77
2019-05-22T18:42:50.000Z,11.73
2019-05-22T18:47:38.000Z,11.67
2019-05-22T18:52:27.000Z,11.60
2019-05-22T18:57:14.000Z,11.52
2019-05-22T19:02:14.000Z,11.42
2019-05-22T19:06:48.000Z,11.34
2019-05-22T19:11:36.000Z,11.25
2019-05-22T19:16:25.000Z,11.18
2019-05-22T19:21:12.000Z,11.10
2019-05-22T20:33:12.000Z,9.16
2019-05-22T20:37:55.000Z,9.07
2019-05-22T20:42:42.000Z,8.93
2019-05-22T20:47:29.000Z,8.85
2019-05-22T20:52:16.000Z,8.80
2019-05-22T20:57:04.000Z,8.78
2019-05-22T21:01:51.000Z,8.78
2019-05-22T21:06:39.000Z,8.77
2019-05-22T21:11:27.000Z,8.81
2019-05-22T21:16:13.000Z,8.89
2019-05-22T21:21:02.000Z,8.99
2019-05-22T21:25:48.000Z,9.08
2019-05-22T21:30:36.000Z,9.12
2019-05-22T21:35:24.000Z,9.14
2019-05-22T21:40:10.000Z,9.21
2019-05-22T21:44:58.000Z,9.28
2019-05-22T21:49:47.000Z,9.28
2019-05-22T21:54:34.000Z,9.15
2019-05-22T21:59:20.000Z,8.96
2019-05-22T22:04:08.000Z,8.77
2019-05-22T22:08:56.000Z,8.58
2019-05-22T22:13:44.000Z,8.39
2019-05-22T22:18:30.000Z,8.23
2019-05-22T22:23:17.000Z,8.08
2019-05-22T22:28:04.000Z,7.92
2019-05-22T22:32:51.000Z,7.74
2019-05-22T22:37:39.000Z,7.54
2019-05-22T22:42:27.000Z,7.35
2019-05-22T22:47:13.000Z,7.18
2019-05-22T22:52:02.000Z,7.04
2019-05-22T22:56:48.000Z,6.90
2019-05-22T23:01:35.000Z,6.77
2019-05-22T23:06:23.000Z,6.64
2019-05-22T23:11:10.000Z,6.53
2019-05-22T23:15:57.000Z,6.41
2019-05-22T23:20:44.000Z,6.28
2019-05-22T23:25:33.000Z,6.15
2019-05-22T23:30:20.000Z,6.01
2019-05-22T23:35:07.000Z,5.92
2019-05-22T23:39:54.000Z,5.85
2019-05-22T23:44:42.000Z,5.79
2019-05-22T23:49:29.000Z,5.73
2019-05-22T23:54:16.000Z,5.66
2019-05-22T23:59:03.000Z,5.63
